EST,Max TemperatureF,Mean TemperatureF,Min TemperatureF,Max Dew PointF,MeanDew PointF,Min DewpointF,Max Humidity, Mean Humidity, Min Humidity, Max Sea Level PressureIn, Mean Sea Level PressureIn, Min Sea Level PressureIn, Max VisibilityMiles, Mean VisibilityMiles, Min VisibilityMiles, Max Wind SpeedMPH, Mean Wind SpeedMPH, Max Gust SpeedMPH,PrecipitationIn, CloudCover, Events, WindDirDegrees
2013-11-1,61,53,45,54,46,38,89,70,51,29.72,29.60,29.43,10,9,1,37,14,48,0.19,6,Rain,248
2013-11-2,49,44,39,40,38,35,93,77,61,29.91,29.77,29.67,10,10,6,20,10,26,0.08,7,Rain,265
2013-11-3,42,35,28,38,30,20,92,71,50,30.46,30.15,29.89,10,9,2,18,10,24,0.01,5,Rain-Snow,323
2013-11-4,38,30,22,20,16,13,81,63,44,30.60,30.55,30.48,10,10,10,13,7,18,0.00,0,,123
2013-11-5,47,39,30,33,22,19,79,57,34,30.58,30.51,30.41,10,10,10,13,9,17,0.00,0,,160
2013-11-6,66,52,38,46,42,35,93,68,42,30.40,30.19,29.94,10,10,10,18,11,25,0.00,3,,186
2013-11-7,58,45,32,52,40,20,100,78,56,30.10,29.96,29.87,10,8,1,26,13,35,0.28,8,Rain-Snow,277
2013-11-8,37,33,28,27,24,20,78,67,56,30.30,30.17,30.01,10,10,7,24,13,33,T,7,Snow,281
2013-11-9,50,38,26,25,20,15,75,50,24,30.30,30.15,29.97,10,10,10,24,11,33,0.00,2,,211
2013-11-10,48,41,34,32,28,24,70,53,36,30.25,30.06,29.93,10,10,10,28,15,43,0.00,7,,265
2013-11-11,47,38,28,36,26,11,92,58,23,30.28,30.14,29.98,10,9,5,24,11,31,0.06,6,Rain,251
2013-11-12,36,29,21,33,21,13,100,80,60,30.44,30.22,29.99,10,6,1,23,14,29,0.12,7,Snow,323
2013-11-13,29,25,21,19,17,15,84,71,58,30.51,30.41,30.32,10,8,2,22,14,29,T,5,Snow,279
2013-11-14,43,33,23,16,13,8,74,50,25,30.35,30.28,30.21,10,10,10,22,13,29,0.00,0,,236
2013-11-15,49,43,36,36,19,12,70,47,23,30.24,30.20,30.15,10,10,10,21,8,28,0.01,2,Rain,225
2013-11-16,55,47,38,45,41,37,100,78,55,30.27,30.20,30.12,10,9,3,16,7,21,T,3,Rain,167
2013-11-17,55,51,46,53,49,45,93,88,83,30.12,29.91,29.60,10,9,3,31,13,39,0.39,8,Rain,170
2013-11-18,51,42,33,43,29,22,80,60,39,29.99,29.81,29.68,10,10,10,32,20,45,0.03,3,Rain,268
2013-11-19,33,29,25,24,21,18,78,70,61,30.41,30.23,29.99,10,10,10,28,12,36,T,6,,318
2013-11-20,39,30,20,18,13,6,84,56,27,30.51,30.46,30.40,10,10,10,18,9,24,0.00,0,,112
2013-11-21,44,35,26,36,29,18,85,72,58,30.51,30.41,30.27,10,10,10,14,8,18,T,3,Rain,163
2013-11-22,49,41,33,49,43,29,100,84,68,30.28,30.12,30.03,10,7,2,31,10,39,0.08,8,Rain-Snow,266
2013-11-23,33,24,14,28,18,3,92,73,53,30.26,30.13,30.03,10,8,0,30,18,40,T,7,Fog-Snow,298
2013-11-24,16,13,9,12,8,3,80,72,64,30.50,30.33,30.15,10,4,0,29,15,42,T,7,Fog-Snow,288
2013-11-25,33,20,7,13,6,2,80,58,35,30.50,30.38,30.25,10,10,10,22,9,29,0.00,2,,213
2013-11-26,32,30,27,32,29,20,100,71,41,30.22,29.95,29.62,10,3,0,18,6,24,1.07,8,Fog-Rain-Snow,134
2013-11-27,32,25,17,32,22,12,100,87,73,30.04,29.72,29.56,9,2,0,30,18,40,0.02,8,Fog-Rain-Snow,299
2013-11-28,22,18,14,16,12,9,88,75,62,30.44,30.22,29.94,10,7,1,26,11,35,T,7,Snow,261
2013-11-29,26,23,19,19,17,15,84,76,68,30.69,30.55,30.35,10,8,2,15,6,18,T,6,Snow,311
2013-11-30,26,22,18,20,17,13,92,83,73,30.66,30.51,30.30,10,10,8,21,11,27,0.00,1,,158